sensor_id;sensor_type;location;lat;lon;timestamp;temperature;humidity
63017;DHT22;50274;45.640;11.756;2023-07-31T00:02:21;24.70;71.30
63017;DHT22;50274;45.640;11.756;2023-07-31T00:04:46;24.70;71.30
63017;DHT22;50274;45.640;11.756;2023-07-31T00:07:12;24.70;71.30
63017;DHT22;50274;45.640;11.756;2023-07-31T00:09:38;24.70;71.20
63017;DHT22;50274;45.640;11.756;2023-07-31T00:12:04;24.60;71.30
63017;DHT22;50274;45.640;11.756;2023-07-31T00:14:30;24.60;71.40
63017;DHT22;50274;45.640;11.756;2023-07-31T00:16:56;24.60;71.50
63017;DHT22;50274;45.640;11.756;2023-07-31T00:19:22;24.60;71.60
63017;DHT22;50274;45.640;11.756;2023-07-31T00:21:48;24.60;71.60
63017;DHT22;50274;45.640;11.756;2023-07-31T00:24:14;24.60;71.50
63017;DHT22;50274;45.640;11.756;2023-07-31T00:26:39;24.60;71.50
63017;DHT22;50274;45.640;11.756;2023-07-31T00:29:05;24.70;71.50
63017;DHT22;50274;45.640;11.756;2023-07-31T00:31:31;24.60;71.50
63017;DHT22;50274;45.640;11.756;2023-07-31T00:33:57;24.60;71.60
63017;DHT22;50274;45.640;11.756;2023-07-31T00:36:23;24.60;71.60
63017;DHT22;50274;45.640;11.756;2023-07-31T00:38:49;24.60;71.70
63017;DHT22;50274;45.640;11.756;2023-07-31T00:41:15;24.60;71.70
63017;DHT22;50274;45.640;11.756;2023-07-31T00:43:40;24.60;71.60
63017;DHT22;50274;45.640;11.756;2023-07-31T00:46:07;24.60;71.60
63017;DHT22;50274;45.640;11.756;2023-07-31T00:48:33;24.70;71.50
63017;DHT22;50274;45.640;11.756;2023-07-31T00:50:59;24.70;71.40
63017;DHT22;50274;45.640;11.756;2023-07-31T00:53:27;24.70;71.30
63017;DHT22;50274;45.640;11.756;2023-07-31T00:55:54;24.70;71.30
63017;DHT22;50274;45.640;11.756;2023-07-31T00:58:19;24.70;71.30
63017;DHT22;50274;45.640;11.756;2023-07-31T01:00:45;24.60;71.40
63017;DHT22;50274;45.640;11.756;2023-07-31T01:03:12;24.70;71.40
63017;DHT22;50274;45.640;11.756;2023-07-31T01:11:11;24.60;71.40
63017;DHT22;50274;45.640;11.756;2023-07-31T01:13:40;24.60;71.40
63017;DHT22;50274;45.640;11.756;2023-07-31T01:16:05;24.60;71.40
63017;DHT22;50274;45.640;11.756;2023-07-31T01:18:31;24.60;71.30
63017;DHT22;50274;45.640;11.756;2023-07-31T01:26:28;24.60;71.10
63017;DHT22;50274;45.640;11.756;2023-07-31T01:29:14;24.60;71.20
63017;DHT22;50274;45.640;11.756;2023-07-31T01:31:42;24.60;71.10
63017;DHT22;50274;45.640;11.756;2023-07-31T01:34:13;24.60;71.20
63017;DHT22;50274;45.640;11.756;2023-07-31T01:36:39;24.40;71.30
63017;DHT22;50274;45.640;11.756;2023-07-31T01:39:05;24.40;71.30
63017;DHT22;50274;45.640;11.756;2023-07-31T01:41:31;24.40;71.30
63017;DHT22;50274;45.640;11.756;2023-07-31T01:43:57;24.40;71.40
63017;DHT22;50274;45.640;11.756;2023-07-31T01:46:23;24.30;71.50
63017;DHT22;50274;45.640;11.756;2023-07-31T01:48:49;24.30;71.60
63017;DHT22;50274;45.640;11.756;2023-07-31T01:51:14;24.20;71.60
63017;DHT22;50274;45.640;11.756;2023-07-31T01:53:40;24.20;71.70
63017;DHT22;50274;45.640;11.756;2023-07-31T01:56:06;24.20;71.70
63017;DHT22;50274;45.640;11.756;2023-07-31T01:58:32;24.10;71.80
63017;DHT22;50274;45.640;11.756;2023-07-31T02:00:58;24.10;71.90
63017;DHT22;50274;45.640;11.756;2023-07-31T02:03:24;24.10;72.00
63017;DHT22;50274;45.640;11.756;2023-07-31T02:05:50;24.10;72.00
63017;DHT22;50274;45.640;11.756;2023-07-31T02:08:16;24.00;72.00
63017;DHT22;50274;45.640;11.756;2023-07-31T02:10:42;24.10;72.00
63017;DHT22;50274;45.640;11.756;2023-07-31T02:13:08;24.10;71.90
63017;DHT22;50274;45.640;11.756;2023-07-31T02:15:34;24.10;71.80
63017;DHT22;50274;45.640;11.756;2023-07-31T02:18:00;24.10;71.70
63017;DHT22;50274;45.640;11.756;2023-07-31T02:20:26;24.10;71.60
63017;DHT22;50274;45.640;11.756;2023-07-31T02:22:52;24.10;71.60
63017;DHT22;50274;45.640;11.756;2023-07-31T02:25:18;24.10;71.60
63017;DHT22;50274;45.640;11.756;2023-07-31T02:27:44;24.10;71.70
63017;DHT22;50274;45.640;11.756;2023-07-31T02:30:10;24.10;71.80
63017;DHT22;50274;45.640;11.756;2023-07-31T02:32:38;24.10;71.90
63017;DHT22;50274;45.640;11.756;2023-07-31T02:35:05;24.10;71.80
63017;DHT22;50274;45.640;11.756;2023-07-31T02:37:33;24.10;71.80
63017;DHT22;50274;45.640;11.756;2023-07-31T02:40:15;24.10;71.80
63017;DHT22;50274;45.640;11.756;2023-07-31T02:43:30;24.10;71.80
63017;DHT22;50274;45.640;11.756;2023-07-31T02:46:28;24.10;71.70
63017;DHT22;50274;45.640;11.756;2023-07-31T02:49:28;24.10;71.70
63017;DHT22;50274;45.640;11.756;2023-07-31T02:52:41;24.10;71.70
63017;DHT22;50274;45.640;11.756;2023-07-31T02:55:18;24.10;71.70
63017;DHT22;50274;45.640;11.756;2023-07-31T02:57:44;24.00;71.70
63017;DHT22;50274;45.640;11.756;2023-07-31T03:00:10;24.00;71.80
63017;DHT22;50274;45.640;11.756;2023-07-31T03:02:36;24.00;71.80
63017;DHT22;50274;45.640;11.756;2023-07-31T03:05:02;24.00;71.90
63017;DHT22;50274;45.640;11.756;2023-07-31T03:07:27;24.00;71.90
63017;DHT22;50274;45.640;11.756;2023-07-31T03:09:56;24.00;71.90
63017;DHT22;50274;45.640;11.756;2023-07-31T03:12:22;24.00;71.90
63017;DHT22;50274;45.640;11.756;2023-07-31T03:14:48;24.00;71.90
63017;DHT22;50274;45.640;11.756;2023-07-31T03:17:13;24.00;71.90
63017;DHT22;50274;45.640;11.756;2023-07-31T03:19:39;24.00;72.00
63017;DHT22;50274;45.640;11.756;2023-07-31T03:22:05;23.90;72.00
63017;DHT22;50274;45.640;11.756;2023-07-31T03:24:31;24.00;72.00
63017;DHT22;50274;45.640;11.756;2023-07-31T03:26:57;23.90;72.00
63017;DHT22;50274;45.640;11.756;2023-07-31T03:29:23;23.90;72.00
63017;DHT22;50274;45.640;11.756;2023-07-31T03:31:49;23.90;72.00
63017;DHT22;50274;45.640;11.756;2023-07-31T03:34:14;23.90;72.00
63017;DHT22;50274;45.640;11.756;2023-07-31T03:36:40;23.90;72.00
63017;DHT22;50274;45.640;11.756;2023-07-31T03:39:06;23.90;71.90
63017;DHT22;50274;45.640;11.756;2023-07-31T03:41:32;23.90;71.90
63017;DHT22;50274;45.640;11.756;2023-07-31T03:43:58;23.90;71.90
63017;DHT22;50274;45.640;11.756;2023-07-31T03:46:24;23.90;71.90
63017;DHT22;50274;45.640;11.756;2023-07-31T03:48:50;23.90;71.90
63017;DHT22;50274;45.640;11.756;2023-07-31T03:51:18;23.90;71.80
63017;DHT22;50274;45.640;11.756;2023-07-31T03:53:44;23.90;71.80
63017;DHT22;50274;45.640;11.756;2023-07-31T03:56:11;23.90;71.80
63017;DHT22;50274;45.640;11.756;2023-07-31T03:58:37;23.90;71.70
63017;DHT22;50274;45.640;11.756;2023-07-31T04:01:03;23.90;71.70
63017;DHT22;50274;45.640;11.756;2023-07-31T04:03:29;23.80;71.70
63017;DHT22;50274;45.640;11.756;2023-07-31T04:05:55;23.80;71.70
63017;DHT22;50274;45.640;11.756;2023-07-31T04:08:22;23.80;71.70
63017;DHT22;50274;45.640;11.756;2023-07-31T04:10:48;23.80;71.70
63017;DHT22;50274;45.640;11.756;2023-07-31T04:13:14;23.80;71.70
63017;DHT22;50274;45.640;11.756;2023-07-31T04:15:40;23.80;71.70
63017;DHT22;50274;45.640;11.756;2023-07-31T04:18:06;23.80;71.70
63017;DHT22;50274;45.640;11.756;2023-07-31T04:20:32;23.80;71.60
63017;DHT22;50274;45.640;11.756;2023-07-31T04:22:58;23.80;71.50
63017;DHT22;50274;45.640;11.756;2023-07-31T04:25:24;23.80;71.50
63017;DHT22;50274;45.640;11.756;2023-07-31T04:27:50;23.80;71.40
63017;DHT22;50274;45.640;11.756;2023-07-31T04:30:16;23.80;71.40
63017;DHT22;50274;45.640;11.756;2023-07-31T04:32:42;23.80;71.30
63017;DHT22;50274;45.640;11.756;2023-07-31T04:35:07;23.80;71.20
63017;DHT22;50274;45.640;11.756;2023-07-31T04:37:33;23.80;71.10
63017;DHT22;50274;45.640;11.756;2023-07-31T04:39:59;23.80;71.00
63017;DHT22;50274;45.640;11.756;2023-07-31T04:42:25;23.90;70.90
63017;DHT22;50274;45.640;11.756;2023-07-31T04:44:51;23.90;70.70
63017;DHT22;50274;45.640;11.756;2023-07-31T04:47:20;23.90;70.70
63017;DHT22;50274;45.640;11.756;2023-07-31T04:49:46;23.90;70.70
63017;DHT22;50274;45.640;11.756;2023-07-31T04:52:12;23.90;70.60
63017;DHT22;50274;45.640;11.756;2023-07-31T04:54:37;24.00;70.60
63017;DHT22;50274;45.640;11.756;2023-07-31T04:57:05;24.00;70.50
63017;DHT22;50274;45.640;11.756;2023-07-31T04:59:31;24.00;70.50
63017;DHT22;50274;45.640;11.756;2023-07-31T05:01:57;24.00;70.50
63017;DHT22;50274;45.640;11.756;2023-07-31T05:04:25;24.00;70.50
63017;DHT22;50274;45.640;11.756;2023-07-31T05:06:51;24.10;70.50
63017;DHT22;50274;45.640;11.756;2023-07-31T05:09:19;24.10;70.50
63017;DHT22;50274;45.640;11.756;2023-07-31T05:11:45;24.10;70.40
63017;DHT22;50274;45.640;11.756;2023-07-31T05:14:11;24.10;70.40
63017;DHT22;50274;45.640;11.756;2023-07-31T05:16:37;24.10;70.30
63017;DHT22;50274;45.640;11.756;2023-07-31T05:19:03;24.20;70.20
63017;DHT22;50274;45.640;11.756;2023-07-31T05:21:28;24.30;70.10
63017;DHT22;50274;45.640;11.756;2023-07-31T05:23:54;24.30;70.10
63017;DHT22;50274;45.640;11.756;2023-07-31T05:26:20;24.40;70.00
63017;DHT22;50274;45.640;11.756;2023-07-31T05:28:46;24.40;69.90
63017;DHT22;50274;45.640;11.756;2023-07-31T05:31:12;24.50;69.80
63017;DHT22;50274;45.640;11.756;2023-07-31T05:33:38;24.50;69.80
63017;DHT22;50274;45.640;11.756;2023-07-31T05:36:04;24.60;69.80
63017;DHT22;50274;45.640;11.756;2023-07-31T05:38:29;24.60;69.70
63017;DHT22;50274;45.640;11.756;2023-07-31T05:40:55;24.60;69.70
63017;DHT22;50274;45.640;11.756;2023-07-31T05:43:21;24.70;69.70
63017;DHT22;50274;45.640;11.756;2023-07-31T05:45:47;24.70;69.70
63017;DHT22;50274;45.640;11.756;2023-07-31T05:48:13;24.80;69.60
63017;DHT22;50274;45.640;11.756;2023-07-31T05:50:39;24.90;69.60
63017;DHT22;50274;45.640;11.756;2023-07-31T05:53:05;25.00;69.50
63017;DHT22;50274;45.640;11.756;2023-07-31T05:55:32;25.00;69.40
63017;DHT22;50274;45.640;11.756;2023-07-31T05:57:58;25.10;69.30
63017;DHT22;50274;45.640;11.756;2023-07-31T06:00:26;25.10;69.10
63017;DHT22;50274;45.640;11.756;2023-07-31T06:02:53;25.20;69.00
63017;DHT22;50274;45.640;11.756;2023-07-31T06:05:19;25.30;68.80
63017;DHT22;50274;45.640;11.756;2023-07-31T06:07:45;25.30;68.60
63017;DHT22;50274;45.640;11.756;2023-07-31T06:10:10;25.40;68.40
63017;DHT22;50274;45.640;11.756;2023-07-31T06:12:36;25.50;68.30
63017;DHT22;50274;45.640;11.756;2023-07-31T06:15:03;25.60;68.10
63017;DHT22;50274;45.640;11.756;2023-07-31T06:17:29;25.60;67.80
63017;DHT22;50274;45.640;11.756;2023-07-31T06:19:56;25.70;67.60
63017;DHT22;50274;45.640;11.756;2023-07-31T06:22:22;25.80;67.40
63017;DHT22;50274;45.640;11.756;2023-07-31T06:24:48;25.90;67.30
63017;DHT22;50274;45.640;11.756;2023-07-31T06:27:13;26.10;67.00
63017;DHT22;50274;45.640;11.756;2023-07-31T06:29:39;26.10;66.80
63017;DHT22;50274;45.640;11.756;2023-07-31T06:32:05;26.20;66.50
63017;DHT22;50274;45.640;11.756;2023-07-31T06:34:32;26.30;66.20
63017;DHT22;50274;45.640;11.756;2023-07-31T06:36:57;26.40;65.90
63017;DHT22;50274;45.640;11.756;2023-07-31T06:39:23;26.60;65.60
63017;DHT22;50274;45.640;11.756;2023-07-31T06:41:49;26.60;65.20
63017;DHT22;50274;45.640;11.756;2023-07-31T06:44:18;26.70;64.70
63017;DHT22;50274;45.640;11.756;2023-07-31T06:46:46;26.80;64.20
63017;DHT22;50274;45.640;11.756;2023-07-31T06:49:12;26.90;64.00
63017;DHT22;50274;45.640;11.756;2023-07-31T06:51:40;27.00;63.40
63017;DHT22;50274;45.640;11.756;2023-07-31T06:54:08;27.10;62.30
63017;DHT22;50274;45.640;11.756;2023-07-31T06:56:34;27.10;61.00
63017;DHT22;50274;45.640;11.756;2023-07-31T06:59:00;27.20;60.30
63017;DHT22;50274;45.640;11.756;2023-07-31T07:01:26;27.20;60.30
63017;DHT22;50274;45.640;11.756;2023-07-31T07:03:55;27.30;60.00
63017;DHT22;50274;45.640;11.756;2023-07-31T07:06:23;27.40;58.50
63017;DHT22;50274;45.640;11.756;2023-07-31T07:08:49;27.40;58.40
63017;DHT22;50274;45.640;11.756;2023-07-31T07:11:15;27.50;58.90
63017;DHT22;50274;45.640;11.756;2023-07-31T07:13:41;27.60;58.80
63017;DHT22;50274;45.640;11.756;2023-07-31T07:16:06;27.60;57.90
63017;DHT22;50274;45.640;11.756;2023-07-31T07:18:32;27.60;58.10
63017;DHT22;50274;45.640;11.756;2023-07-31T07:20:58;27.60;58.40
63017;DHT22;50274;45.640;11.756;2023-07-31T07:23:27;27.60;58.30
63017;DHT22;50274;45.640;11.756;2023-07-31T07:25:56;27.60;57.80
63017;DHT22;50274;45.640;11.756;2023-07-31T07:28:22;27.60;57.90
63017;DHT22;50274;45.640;11.756;2023-07-31T07:30:54;27.70;58.20
63017;DHT22;50274;45.640;11.756;2023-07-31T07:33:20;27.80;58.30
63017;DHT22;50274;45.640;11.756;2023-07-31T07:35:46;27.90;58.00
63017;DHT22;50274;45.640;11.756;2023-07-31T07:38:14;27.90;57.70
63017;DHT22;50274;45.640;11.756;2023-07-31T07:40:40;28.00;56.70
63017;DHT22;50274;45.640;11.756;2023-07-31T07:43:06;28.10;56.20
63017;DHT22;50274;45.640;11.756;2023-07-31T07:45:32;28.20;55.70
63017;DHT22;50274;45.640;11.756;2023-07-31T07:47:58;28.20;54.70
63017;DHT22;50274;45.640;11.756;2023-07-31T07:50:27;28.30;54.30
63017;DHT22;50274;45.640;11.756;2023-07-31T07:52:53;28.40;53.80
63017;DHT22;50274;45.640;11.756;2023-07-31T07:55:19;28.40;53.70
63017;DHT22;50274;45.640;11.756;2023-07-31T07:57:44;28.50;54.00
63017;DHT22;50274;45.640;11.756;2023-07-31T08:00:12;28.50;54.10
63017;DHT22;50274;45.640;11.756;2023-07-31T08:02:38;28.60;53.90
63017;DHT22;50274;45.640;11.756;2023-07-31T08:05:07;28.60;53.90
63017;DHT22;50274;45.640;11.756;2023-07-31T08:07:33;28.60;53.50
63017;DHT22;50274;45.640;11.756;2023-07-31T08:09:59;28.50;53.60
63017;DHT22;50274;45.640;11.756;2023-07-31T08:12:25;28.40;53.80
63017;DHT22;50274;45.640;11.756;2023-07-31T08:14:50;28.40;53.80
63017;DHT22;50274;45.640;11.756;2023-07-31T08:17:17;28.40;54.00
63017;DHT22;50274;45.640;11.756;2023-07-31T08:19:43;28.40;54.20
63017;DHT22;50274;45.640;11.756;2023-07-31T08:22:09;28.50;54.50
63017;DHT22;50274;45.640;11.756;2023-07-31T08:24:35;28.40;54.10
63017;DHT22;50274;45.640;11.756;2023-07-31T08:27:01;28.50;53.70
63017;DHT22;50274;45.640;11.756;2023-07-31T08:29:27;28.60;52.60
63017;DHT22;50274;45.640;11.756;2023-07-31T08:31:53;28.60;52.90
63017;DHT22;50274;45.640;11.756;2023-07-31T08:34:19;28.70;53.50
63017;DHT22;50274;45.640;11.756;2023-07-31T08:36:44;28.80;53.40
63017;DHT22;50274;45.640;11.756;2023-07-31T08:39:10;28.80;53.00
63017;DHT22;50274;45.640;11.756;2023-07-31T08:41:39;28.90;52.20
63017;DHT22;50274;45.640;11.756;2023-07-31T08:44:07;28.90;52.20
63017;DHT22;50274;45.640;11.756;2023-07-31T08:46:34;29.00;52.30
63017;DHT22;50274;45.640;11.756;2023-07-31T08:49:00;28.90;52.10
63017;DHT22;50274;45.640;11.756;2023-07-31T08:51:30;28.80;51.70
63017;DHT22;50274;45.640;11.756;2023-07-31T08:53:56;28.70;52.10
63017;DHT22;50274;45.640;11.756;2023-07-31T08:56:23;28.60;52.50
63017;DHT22;50274;45.640;11.756;2023-07-31T08:58:52;28.70;52.90
63017;DHT22;50274;45.640;11.756;2023-07-31T09:01:19;28.80;52.40
63017;DHT22;50274;45.640;11.756;2023-07-31T09:03:45;28.80;52.40
63017;DHT22;50274;45.640;11.756;2023-07-31T09:06:12;28.90;52.20
63017;DHT22;50274;45.640;11.756;2023-07-31T09:08:42;29.00;52.30
63017;DHT22;50274;45.640;11.756;2023-07-31T09:11:08;29.10;51.90
63017;DHT22;50274;45.640;11.756;2023-07-31T09:13:34;29.10;51.90
63017;DHT22;50274;45.640;11.756;2023-07-31T09:16:00;29.20;51.50
63017;DHT22;50274;45.640;11.756;2023-07-31T09:18:31;29.40;51.30
63017;DHT22;50274;45.640;11.756;2023-07-31T09:21:04;29.50;51.00
63017;DHT22;50274;45.640;11.756;2023-07-31T09:23:43;29.60;51.20
63017;DHT22;50274;45.640;11.756;2023-07-31T09:26:09;29.60;50.80
63017;DHT22;50274;45.640;11.756;2023-07-31T09:28:37;29.60;50.40
63017;DHT22;50274;45.640;11.756;2023-07-31T09:31:03;29.50;50.90
63017;DHT22;50274;45.640;11.756;2023-07-31T09:33:29;29.50;50.70
63017;DHT22;50274;45.640;11.756;2023-07-31T09:35:58;29.60;50.60
63017;DHT22;50274;45.640;11.756;2023-07-31T09:38:26;29.60;50.70
63017;DHT22;50274;45.640;11.756;2023-07-31T09:40:52;29.80;50.20
63017;DHT22;50274;45.640;11.756;2023-07-31T09:43:19;29.80;49.20
63017;DHT22;50274;45.640;11.756;2023-07-31T09:45:46;29.80;49.30
63017;DHT22;50274;45.640;11.756;2023-07-31T09:48:13;29.90;49.60
63017;DHT22;50274;45.640;11.756;2023-07-31T09:50:45;30.00;49.10
63017;DHT22;50274;45.640;11.756;2023-07-31T09:53:11;30.10;48.70
63017;DHT22;50274;45.640;11.756;2023-07-31T09:55:37;30.20;48.60
63017;DHT22;50274;45.640;11.756;2023-07-31T09:58:05;30.40;48.20
63017;DHT22;50274;45.640;11.756;2023-07-31T10:00:31;30.50;47.60
63017;DHT22;50274;45.640;11.756;2023-07-31T10:03:04;30.60;47.80
63017;DHT22;50274;45.640;11.756;2023-07-31T10:05:50;30.70;48.00
63017;DHT22;50274;45.640;11.756;2023-07-31T10:08:18;30.90;47.90
63017;DHT22;50274;45.640;11.756;2023-07-31T10:10:46;31.10;47.80
63017;DHT22;50274;45.640;11.756;2023-07-31T10:13:13;31.20;47.90
63017;DHT22;50274;45.640;11.756;2023-07-31T10:15:39;31.20;47.50
63017;DHT22;50274;45.640;11.756;2023-07-31T10:18:07;31.30;47.00
63017;DHT22;50274;45.640;11.756;2023-07-31T10:20:34;31.40;46.80
63017;DHT22;50274;45.640;11.756;2023-07-31T10:23:00;31.50;46.40
63017;DHT22;50274;45.640;11.756;2023-07-31T10:25:27;31.60;46.60
63017;DHT22;50274;45.640;11.756;2023-07-31T10:27:53;31.70;46.00
63017;DHT22;50274;45.640;11.756;2023-07-31T10:30:23;31.70;45.80
63017;DHT22;50274;45.640;11.756;2023-07-31T10:32:51;31.80;45.30
63017;DHT22;50274;45.640;11.756;2023-07-31T10:35:18;31.80;44.40
63017;DHT22;50274;45.640;11.756;2023-07-31T10:37:44;31.80;44.90
63017;DHT22;50274;45.640;11.756;2023-07-31T10:40:25;31.80;44.20
63017;DHT22;50274;45.640;11.756;2023-07-31T10:42:52;31.80;44.80
63017;DHT22;50274;45.640;11.756;2023-07-31T10:45:39;31.90;44.90
63017;DHT22;50274;45.640;11.756;2023-07-31T10:48:17;32.00;44.40
63017;DHT22;50274;45.640;11.756;2023-07-31T10:50:55;32.10;43.60
63017;DHT22;50274;45.640;11.756;2023-07-31T10:53:31;32.10;44.10
63017;DHT22;50274;45.640;11.756;2023-07-31T10:56:02;32.10;44.00
63017;DHT22;50274;45.640;11.756;2023-07-31T10:58:28;32.20;44.80
63017;DHT22;50274;45.640;11.756;2023-07-31T11:01:02;32.30;44.10
63017;DHT22;50274;45.640;11.756;2023-07-31T11:03:50;32.40;44.30
63017;DHT22;50274;45.640;11.756;2023-07-31T11:06:19;32.40;44.40
63017;DHT22;50274;45.640;11.756;2023-07-31T11:08:49;32.50;43.90
63017;DHT22;50274;45.640;11.756;2023-07-31T11:11:17;32.60;44.00
63017;DHT22;50274;45.640;11.756;2023-07-31T11:13:51;32.70;44.00
63017;DHT22;50274;45.640;11.756;2023-07-31T11:16:23;32.70;42.70
63017;DHT22;50274;45.640;11.756;2023-07-31T11:18:50;32.70;42.10
63017;DHT22;50274;45.640;11.756;2023-07-31T11:21:22;32.70;41.60
63017;DHT22;50274;45.640;11.756;2023-07-31T11:23:52;32.80;41.40
63017;DHT22;50274;45.640;11.756;2023-07-31T11:26:19;33.00;41.70
63017;DHT22;50274;45.640;11.756;2023-07-31T11:28:51;33.20;42.40
63017;DHT22;50274;45.640;11.756;2023-07-31T11:31:18;33.30;42.70
63017;DHT22;50274;45.640;11.756;2023-07-31T11:33:44;33.40;42.20
63017;DHT22;50274;45.640;11.756;2023-07-31T11:36:19;33.40;41.00
63017;DHT22;50274;45.640;11.756;2023-07-31T11:38:45;33.40;41.20
63017;DHT22;50274;45.640;11.756;2023-07-31T11:41:14;33.50;41.20
63017;DHT22;50274;45.640;11.756;2023-07-31T11:43:45;33.60;41.70
63017;DHT22;50274;45.640;11.756;2023-07-31T11:46:11;33.70;41.30
63017;DHT22;50274;45.640;11.756;2023-07-31T11:48:38;33.90;41.90
63017;DHT22;50274;45.640;11.756;2023-07-31T11:51:06;34.00;41.10
63017;DHT22;50274;45.640;11.756;2023-07-31T11:56:09;34.10;39.50
63017;DHT22;50274;45.640;11.756;2023-07-31T11:58:39;34.10;39.10
63017;DHT22;50274;45.640;11.756;2023-07-31T12:01:06;34.10;38.70
63017;DHT22;50274;45.640;11.756;2023-07-31T12:03:34;34.10;39.30
63017;DHT22;50274;45.640;11.756;2023-07-31T12:06:00;34.10;39.80
63017;DHT22;50274;45.640;11.756;2023-07-31T12:08:26;34.10;39.00
63017;DHT22;50274;45.640;11.756;2023-07-31T12:10:53;34.20;39.20
63017;DHT22;50274;45.640;11.756;2023-07-31T12:13:26;34.20;39.50
63017;DHT22;50274;45.640;11.756;2023-07-31T12:15:56;34.40;39.70
63017;DHT22;50274;45.640;11.756;2023-07-31T12:18:25;34.60;39.20
63017;DHT22;50274;45.640;11.756;2023-07-31T12:20:56;34.70;39.40
63017;DHT22;50274;45.640;11.756;2023-07-31T12:23:27;34.90;39.50
63017;DHT22;50274;45.640;11.756;2023-07-31T12:26:03;35.00;39.30
63017;DHT22;50274;45.640;11.756;2023-07-31T12:28:30;35.20;38.40
63017;DHT22;50274;45.640;11.756;2023-07-31T12:31:00;35.20;39.00
63017;DHT22;50274;45.640;11.756;2023-07-31T12:33:37;35.00;36.90
63017;DHT22;50274;45.640;11.756;2023-07-31T12:36:09;34.90;37.50
63017;DHT22;50274;45.640;11.756;2023-07-31T12:38:35;34.70;37.20
63017;DHT22;50274;45.640;11.756;2023-07-31T12:41:01;34.70;37.20
63017;DHT22;50274;45.640;11.756;2023-07-31T12:43:27;34.60;37.30
63017;DHT22;50274;45.640;11.756;2023-07-31T12:45:54;34.80;37.60
63017;DHT22;50274;45.640;11.756;2023-07-31T12:48:21;34.90;37.20
63017;DHT22;50274;45.640;11.756;2023-07-31T12:50:47;34.90;37.50
63017;DHT22;50274;45.640;11.756;2023-07-31T12:53:15;34.90;37.80
63017;DHT22;50274;45.640;11.756;2023-07-31T12:55:41;35.00;38.10
63017;DHT22;50274;45.640;11.756;2023-07-31T12:58:07;34.80;37.40
63017;DHT22;50274;45.640;11.756;2023-07-31T13:00:32;34.80;38.20
63017;DHT22;50274;45.640;11.756;2023-07-31T13:02:59;34.70;38.20
63017;DHT22;50274;45.640;11.756;2023-07-31T13:05:26;34.70;37.60
63017;DHT22;50274;45.640;11.756;2023-07-31T13:07:52;34.70;37.80
63017;DHT22;50274;45.640;11.756;2023-07-31T13:10:18;34.60;37.70
63017;DHT22;50274;45.640;11.756;2023-07-31T13:12:44;34.60;38.10
63017;DHT22;50274;45.640;11.756;2023-07-31T13:15:10;34.70;38.40
63017;DHT22;50274;45.640;11.756;2023-07-31T13:17:36;34.80;38.50
63017;DHT22;50274;45.640;11.756;2023-07-31T13:20:03;34.60;37.70
63017;DHT22;50274;45.640;11.756;2023-07-31T13:22:29;34.60;37.60
63017;DHT22;50274;45.640;11.756;2023-07-31T13:24:55;34.50;38.10
63017;DHT22;50274;45.640;11.756;2023-07-31T13:27:21;34.50;38.60
63017;DHT22;50274;45.640;11.756;2023-07-31T13:29:50;34.50;38.60
63017;DHT22;50274;45.640;11.756;2023-07-31T13:32:18;34.50;38.90
63017;DHT22;50274;45.640;11.756;2023-07-31T13:34:45;34.50;39.00
63017;DHT22;50274;45.640;11.756;2023-07-31T13:37:11;34.40;38.60
63017;DHT22;50274;45.640;11.756;2023-07-31T13:39:37;34.40;39.00
63017;DHT22;50274;45.640;11.756;2023-07-31T13:42:04;34.40;39.00
63017;DHT22;50274;45.640;11.756;2023-07-31T13:44:32;34.50;39.20
63017;DHT22;50274;45.640;11.756;2023-07-31T13:46:59;34.60;39.70
63017;DHT22;50274;45.640;11.756;2023-07-31T13:49:26;34.60;39.40
63017;DHT22;50274;45.640;11.756;2023-07-31T13:51:51;34.70;39.20
63017;DHT22;50274;45.640;11.756;2023-07-31T13:54:17;34.70;38.70
63017;DHT22;50274;45.640;11.756;2023-07-31T13:56:45;34.70;38.50
63017;DHT22;50274;45.640;11.756;2023-07-31T13:59:11;34.80;38.80
63017;DHT22;50274;45.640;11.756;2023-07-31T14:01:37;34.70;38.70
63017;DHT22;50274;45.640;11.756;2023-07-31T14:04:03;34.80;38.90
63017;DHT22;50274;45.640;11.756;2023-07-31T14:06:29;34.90;38.90
63017;DHT22;50274;45.640;11.756;2023-07-31T14:08:55;34.90;38.10
63017;DHT22;50274;45.640;11.756;2023-07-31T14:11:22;34.80;37.90
63017;DHT22;50274;45.640;11.756;2023-07-31T14:13:47;34.60;38.80
63017;DHT22;50274;45.640;11.756;2023-07-31T14:16:13;34.50;39.10
63017;DHT22;50274;45.640;11.756;2023-07-31T14:18:39;34.50;39.30
63017;DHT22;50274;45.640;11.756;2023-07-31T14:21:05;34.50;39.40
63017;DHT22;50274;45.640;11.756;2023-07-31T14:23:31;34.40;39.20
63017;DHT22;50274;45.640;11.756;2023-07-31T14:25:57;34.40;39.30
63017;DHT22;50274;45.640;11.756;2023-07-31T14:28:23;34.40;39.20
63017;DHT22;50274;45.640;11.756;2023-07-31T14:30:49;34.30;39.40
63017;DHT22;50274;45.640;11.756;2023-07-31T14:33:14;34.40;40.20
63017;DHT22;50274;45.640;11.756;2023-07-31T14:35:40;34.40;40.00
63017;DHT22;50274;45.640;11.756;2023-07-31T14:38:06;34.40;39.70
63017;DHT22;50274;45.640;11.756;2023-07-31T14:40:35;34.40;39.50
63017;DHT22;50274;45.640;11.756;2023-07-31T14:43:02;34.40;39.90
63017;DHT22;50274;45.640;11.756;2023-07-31T14:45:27;34.40;39.90
63017;DHT22;50274;45.640;11.756;2023-07-31T14:47:53;34.30;39.80
63017;DHT22;50274;45.640;11.756;2023-07-31T14:50:22;34.30;39.60
63017;DHT22;50274;45.640;11.756;2023-07-31T14:52:51;34.30;39.90
63017;DHT22;50274;45.640;11.756;2023-07-31T14:55:18;34.10;39.70
63017;DHT22;50274;45.640;11.756;2023-07-31T14:57:44;33.90;40.10
63017;DHT22;50274;45.640;11.756;2023-07-31T15:00:10;33.80;40.40
63017;DHT22;50274;45.640;11.756;2023-07-31T15:02:40;33.70;40.60
63017;DHT22;50274;45.640;11.756;2023-07-31T15:05:06;33.70;40.30
63017;DHT22;50274;45.640;11.756;2023-07-31T15:07:33;33.60;40.70
63017;DHT22;50274;45.640;11.756;2023-07-31T15:09:59;33.50;40.50
63017;DHT22;50274;45.640;11.756;2023-07-31T15:12:26;33.40;40.70
63017;DHT22;50274;45.640;11.756;2023-07-31T15:14:52;33.40;40.90
63017;DHT22;50274;45.640;11.756;2023-07-31T15:17:18;33.30;41.20
63017;DHT22;50274;45.640;11.756;2023-07-31T15:19:44;33.40;41.30
63017;DHT22;50274;45.640;11.756;2023-07-31T15:22:10;33.30;41.50
63017;DHT22;50274;45.640;11.756;2023-07-31T15:24:36;33.30;41.40
63017;DHT22;50274;45.640;11.756;2023-07-31T15:27:02;33.30;41.60
63017;DHT22;50274;45.640;11.756;2023-07-31T15:29:29;33.20;41.80
63017;DHT22;50274;45.640;11.756;2023-07-31T15:31:55;33.10;41.90